createdAt,value
2024-03-06T00:02:23.583Z,21.05
2024-03-06T00:04:50.551Z,22.80
2024-03-06T00:07:17.689Z,22.75
2024-03-06T00:09:44.471Z,23.38
2024-03-06T00:12:11.645Z,23.58
2024-03-06T00:14:38.981Z,23.70
2024-03-06T00:17:07.134Z,22.33
2024-03-06T00:19:34.054Z,23.83
2024-03-06T00:22:02.376Z,22.58
2024-03-06T00:24:29.465Z,22.75
2024-03-06T00:26:56.449Z,20.20
2024-03-06T00:29:23.285Z,22.20
2024-03-06T00:31:50.303Z,23.63
2024-03-06T00:34:17.290Z,24.17
2024-03-06T00:36:44.792Z,22.73
2024-03-06T00:39:15.392Z,21.80
2024-03-06T00:41:43.043Z,20.63
2024-03-06T00:44:09.719Z,20.27
2024-03-06T00:46:36.481Z,21.83
2024-03-06T00:49:03.655Z,22.90
2024-03-06T00:51:37.228Z,23.27
2024-03-06T00:54:10.967Z,23.67
2024-03-06T00:56:40.893Z,23.77
2024-03-06T00:59:08.399Z,21.50
2024-03-06T01:01:35.528Z,23.23
2024-03-06T01:04:03.290Z,23.95
2024-03-06T01:06:30.018Z,26.48
2024-03-06T01:08:58.130Z,22.15
2024-03-06T01:11:25.621Z,22.55
2024-03-06T01:13:52.300Z,22.52
2024-03-06T01:16:19.249Z,22.52
2024-03-06T01:18:45.929Z,21.40
2024-03-06T01:21:12.642Z,24.70
2024-03-06T01:23:39.422Z,21.90
2024-03-06T01:26:06.105Z,23.95
2024-03-06T01:28:32.883Z,22.95
2024-03-06T01:31:00.178Z,21.27
2024-03-06T01:33:27.834Z,24.15
2024-03-06T01:35:54.800Z,22.83
2024-03-06T01:38:21.616Z,23.00
2024-03-06T01:40:48.333Z,24.02
2024-03-06T01:43:23.238Z,24.73
2024-03-06T01:45:51.677Z,23.80
2024-03-06T01:48:21.411Z,22.98
2024-03-06T01:50:48.298Z,23.35
2024-03-06T01:53:17.842Z,23.02
2024-03-06T01:55:44.509Z,22.02
2024-03-06T01:58:11.564Z,23.30
2024-03-06T02:00:38.674Z,21.92
2024-03-06T02:03:05.484Z,21.25
2024-03-06T02:05:33.269Z,21.45
2024-03-06T02:08:03.637Z,21.98
2024-03-06T02:10:31.075Z,19.75
2024-03-06T02:12:59.074Z,23.20
2024-03-06T02:15:25.710Z,24.02
2024-03-06T02:17:53.385Z,21.60
2024-03-06T02:20:26.595Z,22.70
2024-03-06T02:22:53.340Z,21.02
2024-03-06T02:25:21.126Z,22.20
2024-03-06T02:27:49.384Z,23.13
2024-03-06T02:30:16.530Z,23.50
2024-03-06T02:32:44.789Z,22.52
2024-03-06T02:35:12.090Z,21.80
2024-03-06T02:37:39.652Z,22.35
2024-03-06T02:40:08.347Z,20.58
2024-03-06T02:42:34.887Z,22.30
2024-03-06T02:45:01.398Z,24.08
2024-03-06T02:47:27.889Z,24.92
2024-03-06T02:49:54.469Z,22.13
2024-03-06T02:52:21.088Z,21.58
2024-03-06T02:54:47.648Z,19.38
2024-03-06T02:57:14.119Z,23.70
2024-03-06T02:59:41.578Z,18.55
2024-03-06T03:02:08.781Z,20.63
2024-03-06T03:04:35.452Z,20.60
2024-03-06T03:07:01.911Z,18.30
2024-03-06T03:09:29.102Z,22.25
2024-03-06T03:11:56.066Z,21.05
2024-03-06T03:14:22.783Z,22.05
2024-03-06T03:16:49.697Z,19.75
2024-03-06T03:19:17.346Z,20.63
2024-03-06T03:21:47.069Z,22.15
2024-03-06T03:24:13.613Z,21.05
2024-03-06T03:26:40.080Z,20.65
2024-03-06T03:29:06.644Z,24.95
2024-03-06T03:31:34.311Z,22.10
2024-03-06T03:34:00.832Z,20.77
2024-03-06T03:36:27.409Z,23.45
2024-03-06T03:38:54.072Z,19.75
2024-03-06T03:41:20.845Z,24.25
2024-03-06T03:43:47.517Z,20.58
2024-03-06T03:46:14.744Z,22.17
2024-03-06T03:48:41.298Z,22.13
2024-03-06T03:51:08.127Z,21.98
2024-03-06T03:53:35.342Z,19.63
2024-03-06T03:56:02.680Z,21.67
2024-03-06T03:58:29.247Z,21.25
2024-03-06T04:00:56.853Z,21.92
2024-03-06T04:03:23.740Z,24.30
2024-03-06T04:05:50.873Z,22.52
2024-03-06T04:08:17.447Z,23.23
2024-03-06T04:10:47.352Z,21.40
2024-03-06T04:13:16.083Z,20.92
2024-03-06T04:15:42.711Z,20.50
2024-03-06T04:18:09.364Z,23.30
2024-03-06T04:20:35.838Z,21.40
2024-03-06T04:23:03.038Z,19.45
2024-03-06T04:25:29.601Z,20.58
2024-03-06T04:27:56.868Z,24.17
2024-03-06T04:30:23.634Z,24.65
2024-03-06T04:32:50.316Z,21.38
2024-03-06T04:35:17.212Z,23.85
2024-03-06T04:37:45.329Z,20.60
2024-03-06T04:40:12.470Z,20.73
2024-03-06T04:42:39.050Z,19.55
2024-03-06T04:45:26.583Z,18.25
2024-03-06T04:47:53.305Z,19.73
2024-03-06T04:50:19.969Z,20.42
2024-03-06T04:52:46.865Z,19.00
2024-03-06T04:55:13.964Z,18.42
2024-03-06T04:57:44.590Z,19.58
2024-03-06T05:00:12.433Z,18.90
2024-03-06T06:00:19.293Z,15.45
2024-03-06T06:02:47.121Z,21.13
2024-03-06T06:07:45.529Z,23.67
2024-03-06T06:10:12.389Z,24.33
2024-03-06T06:12:38.901Z,23.60
2024-03-06T06:15:06.108Z,20.20
2024-03-06T06:17:32.734Z,23.30
2024-03-06T06:19:59.396Z,22.27
2024-03-06T06:22:28.645Z,19.58
2024-03-06T06:24:56.754Z,20.48
2024-03-06T06:27:23.345Z,18.45
2024-03-06T06:29:49.853Z,19.75
2024-03-06T06:32:16.543Z,19.20
2024-03-06T06:34:43.078Z,20.67
2024-03-06T06:37:09.556Z,20.58
2024-03-06T06:39:36.103Z,19.63
2024-03-06T06:42:04.284Z,18.73
2024-03-06T06:44:31.003Z,19.13
2024-03-06T06:46:57.848Z,18.40
2024-03-06T06:49:24.989Z,18.23
2024-03-06T06:51:51.714Z,18.92
2024-03-06T06:54:18.360Z,19.80
2024-03-06T06:56:44.922Z,22.20
2024-03-06T06:59:11.956Z,20.45
2024-03-06T07:01:38.452Z,21.25
2024-03-06T07:04:05.069Z,18.52
2024-03-06T07:06:31.532Z,21.15
2024-03-06T07:08:58.004Z,18.63
2024-03-06T07:11:25.235Z,21.15
2024-03-06T07:13:52.366Z,19.33
2024-03-06T07:16:18.933Z,18.77
2024-03-06T07:18:45.423Z,18.23
2024-03-06T07:21:11.974Z,20.40
2024-03-06T07:23:38.546Z,15.68
2024-03-06T07:26:06.271Z,18.90
2024-03-06T07:28:33.924Z,17.20
2024-03-06T07:31:00.368Z,16.58
2024-03-06T07:33:27.005Z,15.02
2024-03-06T07:35:53.841Z,16.50
2024-03-06T07:38:21.892Z,18.17
2024-03-06T07:40:48.567Z,14.65
2024-03-06T07:43:15.751Z,13.85
2024-03-06T07:45:42.689Z,16.92
2024-03-06T07:48:10.993Z,15.82
2024-03-06T07:50:37.774Z,15.07
2024-03-06T07:53:04.485Z,17.27
2024-03-06T07:55:31.046Z,17.45
2024-03-06T07:57:57.793Z,15.95
2024-03-06T08:00:24.677Z,16.52
2024-03-06T08:02:51.594Z,14.10
2024-03-06T08:05:19.118Z,14.40
2024-03-06T08:07:47.065Z,15.80
2024-03-06T08:10:14.629Z,13.25
2024-03-06T08:12:44.859Z,16.40
2024-03-06T08:15:13.230Z,17.20
2024-03-06T08:17:43.349Z,16.70
2024-03-06T08:20:11.194Z,16.80
2024-03-06T08:22:40.621Z,14.13
2024-03-06T08:25:11.579Z,17.48
2024-03-06T08:27:40.156Z,17.35
2024-03-06T08:30:08.306Z,15.38
2024-03-06T08:32:36.710Z,14.23
2024-03-06T08:35:07.107Z,15.27
2024-03-06T08:37:35.154Z,16.75
2024-03-06T08:40:02.459Z,14.40
2024-03-06T08:42:30.438Z,17.55
2024-03-06T08:44:57.813Z,18.17
2024-03-06T08:47:24.617Z,17.00
2024-03-06T08:49:51.314Z,15.57
2024-03-06T08:52:18.006Z,17.08
2024-03-06T08:54:44.858Z,17.98
2024-03-06T08:57:12.546Z,16.75
2024-03-06T08:59:39.181Z,16.70
2024-03-06T09:02:17.582Z,15.35
2024-03-06T09:04:44.505Z,16.33
2024-03-06T09:07:11.756Z,17.58
2024-03-06T09:09:39.317Z,15.55
2024-03-06T09:12:07.287Z,16.33
2024-03-06T09:14:34.985Z,18.05
2024-03-06T09:17:02.293Z,19.73
2024-03-06T09:19:29.740Z,16.83
2024-03-06T09:21:56.268Z,17.75
2024-03-06T09:24:26.283Z,19.45
2024-03-06T09:26:53.982Z,18.77
2024-03-06T09:29:21.208Z,19.75
2024-03-06T09:31:51.170Z,18.17
2024-03-06T09:34:17.723Z,19.25
2024-03-06T09:36:49.094Z,20.38
2024-03-06T09:39:26.059Z,20.77
2024-03-06T09:41:54.662Z,21.95
2024-03-06T09:44:22.437Z,21.20
2024-03-06T09:46:50.374Z,18.80
2024-03-06T09:49:20.355Z,22.42
2024-03-06T09:51:48.564Z,19.02
2024-03-06T09:54:18.740Z,21.25
2024-03-06T09:56:48.030Z,23.42
2024-03-06T09:59:15.649Z,21.77
2024-03-06T10:01:55.475Z,21.40
2024-03-06T10:04:26.035Z,22.10
2024-03-06T10:06:57.479Z,22.95
2024-03-06T10:09:24.669Z,21.88
2024-03-06T10:11:55.278Z,24.30
2024-03-06T10:14:22.154Z,25.30
2024-03-06T10:16:59.428Z,24.92
2024-03-06T10:19:31.182Z,24.17
2024-03-06T10:21:58.558Z,27.45
2024-03-06T10:24:29.478Z,23.90
2024-03-06T10:26:59.283Z,26.45
2024-03-06T10:29:27.742Z,27.60
2024-03-06T10:31:59.096Z,24.90
2024-03-06T10:34:27.343Z,25.73
2024-03-06T10:37:04.962Z,26.65
2024-03-06T10:39:40.139Z,25.73
2024-03-06T10:42:08.235Z,24.38
2024-03-06T10:44:35.929Z,26.75
2024-03-06T10:47:04.933Z,24.92
2024-03-06T10:49:33.279Z,26.25
2024-03-06T10:52:01.138Z,25.40
2024-03-06T10:54:29.944Z,24.90
2024-03-06T10:56:57.404Z,27.27
2024-03-06T10:59:28.855Z,28.48
2024-03-06T11:02:03.128Z,23.33
2024-03-06T11:04:35.113Z,27.02
2024-03-06T11:07:03.689Z,25.77
2024-03-06T11:09:36.186Z,24.33
2024-03-06T11:12:03.652Z,24.50
2024-03-06T11:14:32.559Z,22.58
2024-03-06T11:17:06.524Z,25.10
2024-03-06T11:19:53.961Z,23.48
2024-03-06T11:23:09.712Z,23.73
2024-03-06T11:25:52.200Z,23.85
2024-03-06T11:28:23.839Z,23.23
2024-03-06T11:31:07.413Z,22.60
2024-03-06T11:33:45.669Z,24.35
2024-03-06T11:36:19.438Z,24.30
2024-03-06T11:39:08.373Z,23.85
2024-03-06T11:41:38.078Z,24.00
2024-03-06T11:44:07.579Z,23.95
2024-03-06T11:46:50.865Z,25.98
2024-03-06T11:49:21.682Z,22.40
2024-03-06T11:51:54.894Z,23.23
2024-03-06T11:54:25.338Z,27.05
2024-03-06T11:56:54.839Z,24.90
2024-03-06T11:59:29.697Z,26.27
2024-03-06T12:01:57.658Z,26.05
2024-03-06T12:04:25.417Z,25.80
2024-03-06T12:06:52.255Z,27.42
2024-03-06T12:09:19.383Z,21.40
2024-03-06T12:11:46.366Z,22.85
2024-03-06T12:14:18.877Z,23.25
2024-03-06T12:16:55.500Z,21.90
2024-03-06T12:19:23.318Z,23.40
2024-03-06T12:21:49.930Z,22.52
2024-03-06T12:24:21.019Z,22.00
2024-03-06T12:26:49.573Z,24.80
2024-03-06T12:29:22.213Z,22.15
2024-03-06T12:31:48.791Z,22.52
2024-03-06T12:34:18.709Z,21.13
2024-03-06T12:36:45.886Z,22.15
2024-03-06T12:39:19.199Z,24.77
2024-03-06T12:41:46.610Z,22.02
2024-03-06T12:44:13.289Z,23.50
2024-03-06T12:46:40.141Z,23.40
2024-03-06T12:49:06.646Z,22.10
2024-03-06T12:51:33.802Z,20.55
2024-03-06T12:54:02.246Z,24.80
2024-03-06T12:56:28.811Z,20.95
2024-03-06T12:58:55.342Z,23.98
2024-03-06T13:01:21.979Z,21.15
2024-03-06T13:03:48.608Z,24.83
2024-03-06T13:06:15.249Z,21.73
2024-03-06T13:08:42.387Z,26.38
2024-03-06T13:11:10.675Z,22.02
2024-03-06T13:13:37.378Z,23.35
2024-03-06T13:16:06.697Z,22.08
2024-03-06T13:18:35.155Z,21.98
2024-03-06T13:21:02.931Z,22.65
2024-03-06T13:23:29.606Z,20.95
2024-03-06T13:25:56.221Z,20.75
2024-03-06T13:28:22.685Z,21.10
2024-03-06T13:30:49.274Z,21.05
2024-03-06T13:33:15.976Z,20.98
2024-03-06T13:35:43.744Z,20.02
2024-03-06T13:38:10.282Z,20.85
2024-03-06T13:40:36.847Z,20.92
2024-03-06T13:43:03.328Z,22.45
2024-03-06T13:45:29.884Z,22.13
2024-03-06T13:47:56.598Z,25.35
2024-03-06T13:50:24.862Z,20.15
2024-03-06T13:52:51.622Z,22.02
2024-03-06T13:55:18.355Z,22.92
2024-03-06T13:57:44.876Z,22.05
2024-03-06T14:00:18.100Z,21.73
2024-03-06T14:02:48.683Z,19.63
2024-03-06T14:05:18.189Z,20.95
2024-03-06T14:07:44.933Z,22.08
2024-03-06T14:10:12.453Z,21.88
2024-03-06T14:12:39.681Z,19.33
2024-03-06T14:15:13.805Z,20.42
2024-03-06T14:17:40.960Z,25.15
2024-03-06T14:20:07.820Z,21.38
2024-03-06T14:22:34.393Z,23.20
2024-03-06T14:25:00.920Z,21.83
2024-03-06T14:27:27.400Z,20.85
2024-03-06T14:29:55.302Z,21.65
2024-03-06T14:32:22.642Z,22.00
2024-03-06T14:34:49.396Z,19.13
2024-03-06T14:37:15.966Z,20.25
2024-03-06T14:39:42.443Z,22.42
2024-03-06T14:42:08.963Z,18.88
2024-03-06T14:44:35.642Z,20.65
2024-03-06T14:47:02.213Z,20.92
2024-03-06T14:49:28.810Z,20.02
2024-03-06T14:51:56.582Z,19.27
2024-03-06T14:54:26.766Z,19.88
2024-03-06T14:56:54.199Z,19.92
2024-03-06T14:59:22.551Z,18.33
2024-03-06T15:01:49.762Z,18.50
2024-03-06T15:04:16.342Z,18.25
2024-03-06T15:06:44.397Z,21.92
2024-03-06T15:09:13.090Z,19.83
2024-03-06T15:11:42.988Z,17.95
2024-03-06T15:14:09.752Z,16.77
2024-03-06T15:16:38.495Z,16.60
2024-03-06T15:19:05.166Z,19.25
2024-03-06T15:21:35.210Z,18.30
2024-03-06T15:24:04.643Z,16.05
2024-03-06T15:26:32.686Z,18.67
2024-03-06T15:29:00.388Z,14.48
2024-03-06T15:31:26.901Z,19.48
2024-03-06T15:33:53.592Z,16.52
2024-03-06T15:36:20.168Z,15.65
2024-03-06T15:38:46.816Z,16.67
2024-03-06T15:41:13.832Z,19.02
2024-03-06T15:43:40.421Z,19.65
2024-03-06T15:46:07.519Z,17.98
2024-03-06T15:48:35.109Z,17.38
2024-03-06T15:51:01.848Z,17.70
2024-03-06T15:53:32.830Z,18.83
2024-03-06T15:55:59.440Z,16.02
2024-03-06T15:58:26.085Z,20.35
2024-03-06T16:00:56.727Z,16.00
2024-03-06T16:03:26.173Z,15.05
2024-03-06T16:05:58.784Z,17.23
2024-03-06T16:08:30.480Z,15.18
2024-03-06T16:10:58.565Z,16.27
2024-03-06T16:13:25.107Z,15.82
2024-03-06T16:15:51.793Z,16.15
2024-03-06T16:18:18.587Z,14.82
2024-03-06T16:20:46.141Z,14.45
2024-03-06T16:23:12.844Z,16.73
2024-03-06T16:25:39.427Z,16.33
2024-03-06T16:28:07.741Z,13.88
2024-03-06T16:30:34.576Z,15.77
2024-03-06T16:33:02.304Z,15.43
2024-03-06T16:35:29.316Z,14.95
2024-03-06T16:37:56.878Z,16.75
2024-03-06T16:40:24.118Z,16.95
2024-03-06T16:42:50.631Z,17.00
2024-03-06T16:45:17.203Z,13.73
2024-03-06T16:47:43.855Z,13.43
2024-03-06T16:50:10.853Z,15.73
2024-03-06T16:52:37.370Z,14.35
2024-03-06T16:55:04.585Z,14.25
2024-03-06T16:57:32.119Z,14.32
2024-03-06T16:59:58.790Z,20.42
2024-03-06T17:02:25.373Z,16.27
2024-03-06T17:04:51.875Z,14.80
2024-03-06T17:07:18.383Z,13.98
2024-03-06T17:09:44.837Z,13.80
2024-03-06T17:12:11.450Z,14.45
2024-03-06T17:14:38.083Z,12.10
2024-03-06T17:17:04.902Z,12.75
2024-03-06T17:19:31.377Z,14.15
2024-03-06T17:21:58.096Z,13.75
2024-03-06T17:24:24.607Z,12.80
2024-03-06T17:26:51.246Z,13.10
2024-03-06T17:29:18.164Z,14.90
2024-03-06T17:31:45.039Z,13.90
2024-03-06T17:34:11.485Z,14.73
2024-03-06T17:36:39.337Z,14.48
2024-03-06T17:39:09.858Z,11.90
2024-03-06T17:41:36.663Z,13.55
2024-03-06T17:44:05.223Z,13.38
2024-03-06T17:46:32.682Z,14.48
2024-03-06T17:48:59.788Z,13.73
2024-03-06T17:51:33.498Z,13.40
2024-03-06T17:53:59.971Z,13.95
2024-03-06T17:56:26.678Z,12.68
2024-03-06T17:58:53.971Z,12.88
2024-03-06T18:01:25.087Z,14.77
2024-03-06T18:03:53.085Z,11.88
2024-03-06T18:06:19.636Z,13.88
2024-03-06T18:08:46.294Z,14.65
2024-03-06T18:11:13.002Z,13.23
2024-03-06T18:13:40.556Z,12.68
2024-03-06T18:16:12.546Z,13.10
2024-03-06T18:18:39.353Z,12.50
2024-03-06T18:21:07.058Z,13.57
2024-03-06T18:23:33.616Z,11.18
2024-03-06T18:26:00.506Z,14.65
2024-03-06T18:28:27.774Z,11.43
2024-03-06T18:30:54.466Z,12.52
2024-03-06T18:33:21.525Z,11.45
2024-03-06T18:35:48.213Z,12.02
2024-03-06T18:38:14.884Z,13.23
2024-03-06T18:40:41.501Z,12.38
2024-03-06T18:43:08.024Z,12.02
2024-03-06T18:45:34.601Z,12.68
2024-03-06T18:48:03.211Z,13.32
2024-03-06T18:50:32.726Z,12.63
2024-03-06T18:52:59.856Z,14.20
2024-03-06T18:55:27.536Z,12.23
2024-03-06T18:57:54.134Z,11.18
2024-03-06T19:00:21.907Z,12.27
2024-03-06T19:02:50.949Z,12.45
2024-03-06T19:05:18.089Z,13.85
2024-03-06T19:07:45.487Z,10.75
2024-03-06T19:10:12.691Z,12.27
2024-03-06T19:12:39.184Z,13.32
2024-03-06T19:15:07.739Z,12.23
2024-03-06T19:17:35.740Z,12.82
2024-03-06T19:20:02.431Z,11.95
2024-03-06T19:22:28.923Z,12.18
2024-03-06T19:24:55.440Z,13.10
2024-03-06T19:27:23.693Z,14.35
2024-03-06T19:29:53.202Z,13.93
2024-03-06T19:32:19.685Z,12.50
2024-03-06T19:34:46.275Z,12.95
2024-03-06T19:37:12.721Z,13.55
2024-03-06T19:39:39.250Z,12.52
2024-03-06T19:42:10.220Z,13.13
2024-03-06T19:44:36.868Z,14.23
2024-03-06T19:47:05.079Z,13.80
2024-03-06T19:49:31.632Z,13.23
2024-03-06T19:51:58.216Z,14.18
2024-03-06T19:54:24.809Z,15.63
2024-03-06T19:56:52.678Z,14.90
2024-03-06T19:59:19.372Z,15.77
2024-03-06T20:01:45.973Z,16.10
2024-03-06T20:04:12.553Z,14.70
2024-03-06T20:06:39.086Z,13.80
2024-03-06T20:09:06.310Z,14.10
2024-03-06T20:11:32.868Z,14.13
2024-03-06T20:13:59.513Z,15.57
2024-03-06T20:16:27.102Z,14.25
2024-03-06T20:18:53.694Z,14.13
2024-03-06T20:21:22.261Z,16.02
2024-03-06T20:23:49.884Z,13.57
2024-03-06T20:26:16.519Z,16.73
2024-03-06T20:28:44.986Z,15.77
2024-03-06T20:31:11.545Z,15.45
2024-03-06T20:33:38.120Z,14.02
2024-03-06T20:36:06.234Z,14.48
2024-03-06T20:38:34.026Z,16.67
2024-03-06T20:41:00.615Z,15.80
2024-03-06T20:43:27.302Z,18.08
2024-03-06T20:45:55.711Z,16.65
2024-03-06T20:48:26.818Z,14.45
2024-03-06T20:50:53.500Z,15.73
2024-03-06T20:53:20.612Z,15.50
2024-03-06T20:55:48.173Z,16.33
2024-03-06T20:58:15.045Z,15.55
2024-03-06T21:00:41.731Z,18.02
2024-03-06T21:03:09.521Z,17.27
2024-03-06T21:05:36.231Z,15.40
2024-03-06T21:08:02.882Z,17.33
2024-03-06T21:10:29.997Z,15.88
2024-03-06T21:12:56.628Z,19.35
2024-03-06T21:15:25.554Z,17.25
2024-03-06T21:17:52.251Z,19.15
2024-03-06T21:20:19.016Z,18.08
2024-03-06T21:22:46.118Z,18.90
2024-03-06T21:25:13.773Z,19.25
2024-03-06T21:27:40.875Z,18.08
2024-03-06T21:30:09.294Z,17.50
2024-03-06T21:32:36.945Z,19.17
2024-03-06T21:35:04.122Z,18.20
2024-03-06T21:37:34.179Z,22.13
2024-03-06T21:40:00.882Z,19.63
2024-03-06T21:42:27.434Z,20.83
2024-03-06T21:44:54.371Z,21.60
2024-03-06T21:47:22.320Z,21.13
2024-03-06T21:49:50.244Z,19.30
2024-03-06T21:52:16.736Z,20.55
2024-03-06T21:54:43.929Z,22.63
2024-03-06T21:57:13.831Z,21.65
2024-03-06T21:59:40.598Z,24.80
2024-03-06T22:02:08.949Z,22.63
2024-03-06T22:04:35.604Z,24.15
2024-03-06T22:07:02.171Z,25.98
2024-03-06T22:09:28.644Z,21.38
2024-03-06T22:11:55.227Z,24.50
2024-03-06T22:14:21.881Z,28.75
2024-03-06T22:16:48.377Z,24.25
2024-03-06T22:19:15.251Z,26.02
2024-03-06T22:21:42.694Z,25.90
2024-03-06T22:24:09.378Z,27.27
2024-03-06T22:26:35.882Z,26.75
2024-03-06T22:29:04.972Z,28.15
2024-03-06T22:31:31.413Z,29.67
2024-03-06T22:33:58.033Z,29.23
2024-03-06T22:36:24.834Z,26.92
2024-03-06T22:38:51.485Z,28.88
2024-03-06T22:41:22.118Z,28.35
2024-03-06T22:43:49.482Z,26.52
2024-03-06T22:46:16.361Z,28.45
2024-03-06T22:48:46.506Z,27.33
2024-03-06T22:51:13.063Z,26.17
2024-03-06T22:53:39.913Z,30.55
2024-03-06T22:56:07.137Z,29.98
2024-03-06T22:58:33.812Z,28.52
2024-03-06T23:01:00.310Z,27.85
2024-03-06T23:03:27.100Z,31.58
2024-03-06T23:05:54.229Z,29.27
2024-03-06T23:08:20.881Z,30.08
2024-03-06T23:10:47.404Z,28.90
2024-03-06T23:13:15.927Z,29.67
2024-03-06T23:15:43.551Z,29.35
2024-03-06T23:18:13.838Z,31.60
2024-03-06T23:20:40.445Z,29.15
2024-03-06T23:23:07.544Z,31.88
2024-03-06T23:25:34.314Z,32.63
2024-03-06T23:28:02.365Z,36.05
2024-03-06T23:30:29.016Z,34.33
2024-03-06T23:32:56.375Z,34.35
2024-03-06T23:35:23.210Z,29.95
2024-03-06T23:37:50.319Z,30.25
2024-03-06T23:40:17.077Z,35.17
2024-03-06T23:42:45.462Z,30.98
2024-03-06T23:45:13.021Z,38.92
2024-03-06T23:47:40.530Z,36.95
2024-03-06T23:50:09.008Z,35.55
2024-03-06T23:52:36.689Z,43.65
2024-03-06T23:55:04.932Z,39.35
2024-03-06T23:57:31.383Z,37.28
2024-03-06T23:59:58.717Z,40.85
